Dades de l'estació automàtica Illa de Buda
Resum diari
21:30 TU| Temperatura mitjana | 17.3 °C | |
|---|---|---|
| Temperatura màxima | 20.4 °C | 14:45 TU |
| Temperatura mínima | 15.0 °C | 4:16 TU |
| Humitat relativa mitjana | 84% | |
| Precipitació acumulada | 1.4 mm | |
| Ratxa màxima del vent (10 m) | 23.0 km/h - 182º | 13:31 TU |
| Pressió atmosfèrica mitjana | 1012.7 hPa | |
| Irradiació solar global | 12.3 MJ/m2 | |
El tram horari està expressat en Temps Universal (TU). Cal sumar una hora en horari d'hivern i dues en horari d'estiu per passar a l'hora oficial.
Illa de Buda
| Municipi | Sant Jaume d'Enveja |
|---|---|
| Comarca | Montsià |
| Altitud | 1 m |
| Data alta | 14.07.1999 |
| Estat actual | Operativa |
| Període TU |
TM °C |
TX °C |
TN °C |
HRM % |
PPT mm |
VVM (10 m) km/h |
DVM (10 m) graus |
VVX (10 m) km/h |
PM hPa |
RS W/m2 |
|---|---|---|---|---|---|---|---|---|---|---|
| 00:00 - 00:30 | 15.7 | 15.8 | 15.5 | 86 | 0.0 | 0.0 | 0 | 0.0 | 1014.4 | 0 |
| 00:30 - 01:00 | 15.7 | 15.9 | 15.6 | 89 | 0.0 | 0.0 | 0 | 0.0 | 1014.2 | 0 |
| 01:00 - 01:30 | 15.9 | 16.0 | 15.7 | 89 | 0.0 | 0.4 | 11 | 2.5 | 1013.9 | 0 |
| 01:30 - 02:00 | 15.7 | 15.7 | 15.6 | 90 | 0.0 | 1.4 | 328 | 3.6 | 1013.7 | 0 |
| 02:00 - 02:30 | 15.6 | 15.7 | 15.5 | 92 | 0.0 | 1.1 | 20 | 4.3 | 1013.7 | 0 |
| 02:30 - 03:00 | 15.6 | 15.8 | 15.4 | 93 | 0.0 | 3.2 | 72 | 6.1 | 1013.6 | 0 |
| 03:00 - 03:30 | 15.3 | 15.5 | 15.0 | 94 | 0.0 | 2.9 | 91 | 6.1 | 1013.7 | 0 |
| 03:30 - 04:00 | 15.3 | 15.6 | 15.0 | 94 | 0.0 | 2.2 | 66 | 5.4 | 1013.5 | 0 |
| 04:00 - 04:30 | 15.3 | 15.6 | 15.0 | 94 | 0.0 | 2.2 | 83 | 5.8 | 1013.2 | 0 |
| 04:30 - 05:00 | 15.4 | 15.5 | 15.2 | 94 | 0.0 | 5.0 | 58 | 7.2 | 1013.1 | 2 |
| 05:00 - 05:30 | 15.8 | 16.1 | 15.4 | 93 | 0.0 | 3.2 | 53 | 5.8 | 1013.1 | 30 |
| 05:30 - 06:00 | 16.6 | 16.9 | 16.1 | 91 | 0.0 | 5.0 | 60 | 9.0 | 1013.1 | 77 |
| 06:00 - 06:30 | 16.9 | 17.0 | 16.8 | 88 | 0.0 | 6.8 | 63 | 10.4 | 1013.1 | 72 |
| 06:30 - 07:00 | 17.2 | 17.4 | 17.0 | 86 | 0.0 | 2.2 | 35 | 6.8 | 1013.3 | 108 |
| 07:00 - 07:30 | 17.5 | 17.7 | 17.2 | 85 | 0.0 | 4.7 | 47 | 8.6 | 1013.3 | 165 |
| 07:30 - 08:00 | 17.8 | 17.9 | 17.6 | 83 | 0.0 | 6.5 | 49 | 13.0 | 1013.3 | 144 |
| 08:00 - 08:30 | 17.7 | 17.9 | 17.6 | 82 | 0.0 | 7.6 | 56 | 11.2 | 1013.2 | 156 |
| 08:30 - 09:00 | 18.2 | 19.5 | 17.6 | 86 | 0.1 | 6.1 | 49 | 11.9 | 1013.1 | 467 |
| 09:00 - 09:30 | 19.2 | 19.8 | 18.8 | 76 | 0.0 | 5.0 | 110 | 9.7 | 1013.2 | 570 |
| 09:30 - 10:00 | 18.3 | 19.4 | 18.0 | 79 | 0.0 | 5.8 | 153 | 10.8 | 1013.3 | 127 |
| 10:00 - 10:30 | 18.0 | 18.1 | 17.8 | 81 | 0.0 | 5.4 | 169 | 9.7 | 1013.2 | 146 |
| 10:30 - 11:00 | 18.3 | 18.5 | 18.0 | 80 | 0.0 | 7.2 | 171 | 13.3 | 1013.1 | 360 |
| 11:00 - 11:30 | 18.0 | 18.4 | 17.7 | 82 | 0.1 | 10.4 | 184 | 16.6 | 1013.2 | 161 |
| 11:30 - 12:00 | 17.8 | 18.0 | 17.7 | 88 | 0.0 | 11.2 | 166 | 16.6 | 1012.7 | 269 |
| 12:00 - 12:30 | 18.5 | 18.8 | 18.0 | 82 | 0.0 | 11.5 | 170 | 16.9 | 1012.3 | 710 |
| 12:30 - 13:00 | 18.6 | 18.9 | 18.4 | 80 | 0.0 | 10.8 | 174 | 17.3 | 1012.1 | 529 |
| 13:00 - 13:30 | 18.8 | 19.1 | 18.6 | 81 | 0.0 | 12.6 | 176 | 19.4 | 1012.0 | 462 |
| 13:30 - 14:00 | 18.8 | 18.9 | 18.6 | 80 | 0.0 | 11.5 | 179 | 23.0 | 1011.9 | 353 |
| 14:00 - 14:30 | 19.2 | 19.7 | 18.8 | 75 | 0.0 | 10.1 | 187 | 15.5 | 1011.7 | 387 |
| 14:30 - 15:00 | 20.0 | 20.4 | 19.7 | 70 | 0.0 | 10.1 | 184 | 16.2 | 1011.3 | 696 |
| 15:00 - 15:30 | 19.2 | 19.6 | 19.0 | 75 | 0.0 | 11.9 | 188 | 19.8 | 1011.2 | 220 |
| 15:30 - 16:00 | 19.3 | 19.5 | 19.1 | 72 | 0.0 | 11.5 | 191 | 20.5 | 1011.3 | 161 |
| 16:00 - 16:30 | 19.1 | 19.3 | 18.9 | 79 | 0.0 | 15.1 | 180 | 22.7 | 1011.0 | 124 |
| 16:30 - 17:00 | 19.2 | 19.7 | 18.9 | 78 | 0.0 | 7.2 | 222 | 15.5 | 1011.3 | 194 |
| 17:00 - 17:30 | 19.0 | 19.2 | 18.7 | 77 | 0.0 | 2.5 | 266 | 7.6 | 1011.4 | 68 |
| 17:30 - 18:00 | 18.6 | 18.7 | 18.1 | 82 | 0.1 | 4.3 | 283 | 19.4 | 1011.9 | 18 |
| 18:00 - 18:30 | 17.5 | 18.2 | 16.7 | 93 | 1.1 | 5.8 | 339 | 17.6 | 1011.8 | 61 |
| 18:30 - 19:00 | 17.3 | 17.5 | 16.8 | 88 | 0.0 | 3.2 | 350 | 8.3 | 1011.6 | 36 |
| 19:00 - 19:30 | 16.5 | 16.8 | 16.1 | 89 | 0.0 | 3.6 | 305 | 12.6 | 1012.1 | 0 |
| 19:30 - 20:00 | 16.4 | 16.6 | 16.3 | 82 | 0.0 | 5.8 | 330 | 15.1 | 1012.5 | 0 |
| 20:00 - 20:30 | 16.2 | 16.4 | 16.0 | 84 | 0.0 | 3.2 | 324 | 7.9 | 1012.7 | 0 |
| 20:30 - 21:00 | 16.1 | 16.2 | 16.0 | 83 | 0.0 | 4.7 | 344 | 11.2 | 1012.9 | 0 |
| 21:00 - 21:30 | 16.2 | 16.3 | 16.0 | 83 | 0.0 | 4.7 | 347 | 11.5 | 1013.0 | 0 |
| 21:30 - 22:00 | 16.0 | 16.2 | 15.7 | 83 | 0.0 | 5.4 | 340 | 12.2 | 1012.9 | 0 |
Les dades en taronja només han passat un control de qualitat automàtic. Resta pendent la seva validació definitiva.